Time;durP1;ratioP1;P1;durP2;ratioP2;P2;SDS_P1;SDS_P2;PMS_P1;PMS_P2;Temp;Humidity;BMP_temperature;BMP_pressure;BME280_temperature;BME280_humidity;BME280_pressure;Samples;Min_cycle;Max_cycle;Signal;HPM_P1;HPM_P2
2023/04/02 00:02:41;;;;;;;0.30;0.30;;;;;;;8.46;67.13;93746.91;5099390;28;20206;-74
2023/04/02 00:05:32;;;;;;;0.60;0.55;;;;;;;8.49;67.29;93740.81;5064604;28;20211;-75
2023/04/02 00:08:02;;;;;;;0.93;0.30;;;;;;;8.58;66.38;93731.84;5101111;28;20221;-77
2023/04/02 00:10:32;;;;;;;0.57;0.30;;;;;;;8.60;66.19;93737.72;5095284;28;20284;-74
2023/04/02 00:13:07;;;;;;;0.30;0.30;;;;;;;8.60;66.09;93745.81;5095466;28;20202;-79
2023/04/02 00:15:34;;;;;;;0.35;0.30;;;;;;;8.52;66.49;93739.38;5096200;28;20229;-75
2023/04/02 00:18:01;;;;;;;0.85;0.50;;;;;;;8.30;67.40;93743.25;5093382;28;20669;-77
2023/04/02 00:20:30;;;;;;;0.57;0.30;;;;;;;8.21;68.66;93756.03;5096728;28;20226;-76
2023/04/02 00:22:57;;;;;;;0.35;0.30;;;;;;;8.17;67.85;93749.75;5090280;28;20206;-77
2023/04/02 00:25:27;;;;;;;0.52;0.40;;;;;;;8.04;68.77;93740.06;5067898;28;20198;-74
2023/04/02 00:27:54;;;;;;;1.52;0.30;;;;;;;8.13;67.79;93733.44;5098084;28;20206;-75
2023/04/02 00:30:22;;;;;;;4.28;0.50;;;;;;;8.29;67.22;93724.72;5098375;28;20255;-75
2023/04/02 00:32:49;;;;;;;0.30;0.30;;;;;;;8.26;67.00;93730.75;5095027;28;20205;-74
2023/04/02 00:35:22;;;;;;;0.20;0.20;;;;;;;8.41;65.76;93722.06;5098340;28;20202;-77
2023/04/02 00:37:50;;;;;;;1.95;0.40;;;;;;;8.50;65.75;93731.63;5106946;28;20275;-76
2023/04/02 00:40:21;;;;;;;0.30;0.30;;;;;;;8.51;65.67;93721.59;5096835;28;20206;-79
2023/04/02 00:42:49;;;;;;;0.22;0.22;;;;;;;8.41;65.99;93728.25;5102254;28;20198;-77
2023/04/02 00:45:23;;;;;;;0.30;0.30;;;;;;;8.32;67.04;93724.06;5101064;28;20395;-75
2023/04/02 00:47:51;;;;;;;0.88;0.43;;;;;;;8.19;67.65;93734.81;5081910;28;20205;-76
2023/04/02 00:50:24;;;;;;;0.77;0.45;;;;;;;8.21;67.66;93734.47;5094677;28;20206;-76
2023/04/02 00:52:53;;;;;;;0.82;0.40;;;;;;;8.31;67.17;93738.66;5100198;28;20225;-75
2023/04/02 00:55:24;;;;;;;0.20;0.20;;;;;;;8.35;66.73;93734.97;5101563;28;20194;-76
2023/04/02 00:57:52;;;;;;;0.35;0.35;;;;;;;8.54;65.75;93729.81;5097401;28;20229;-75
2023/04/02 01:00:22;;;;;;;0.38;0.38;;;;;;;8.45;66.00;93717.56;5094974;28;20209;-75
2023/04/02 01:03:27;;;;;;;0.40;0.40;;;;;;;8.44;66.69;93727.56;5097634;28;20728;-76
2023/04/02 01:06:03;;;;;;;0.30;0.30;;;;;;;8.26;67.29;93720.75;5076365;28;20205;-75
2023/04/02 01:08:41;;;;;;;0.40;0.40;;;;;;;8.21;67.19;93721.75;5101385;28;20206;-75
2023/04/02 01:11:24;;;;;;;2.17;0.52;;;;;;;8.30;66.44;93727.06;5099311;28;20611;-78
2023/04/02 01:13:57;;;;;;;0.32;0.32;;;;;;;8.40;66.09;93723.97;5067725;28;20199;-81
2023/04/02 01:16:35;;;;;;;0.22;0.22;;;;;;;8.48;65.45;93727.66;5096579;28;20230;-75
2023/04/02 01:19:13;;;;;;;0.30;0.30;;;;;;;8.41;65.99;93722.84;5097699;28;20221;-75
2023/04/02 01:21:57;;;;;;;0.30;0.30;;;;;;;8.49;65.25;93724.63;5098303;28;20696;-76
2023/04/02 01:24:31;;;;;;;0.80;0.45;;;;;;;8.66;64.36;93722.84;5097862;28;20198;-75
2023/04/02 01:27:01;;;;;;;0.40;0.30;;;;;;;8.60;64.64;93737.72;5081245;28;20281;-76
2023/04/02 01:29:32;;;;;;;0.40;0.40;;;;;;;8.66;64.46;93739.03;5101427;28;20201;-76
2023/04/02 01:32:04;;;;;;;0.47;0.47;;;;;;;8.61;65.02;93747.38;5077314;28;20256;-77
2023/04/02 01:34:32;;;;;;;0.20;0.20;;;;;;;8.53;64.74;93752.53;5099008;28;20203;-74
2023/04/02 01:37:13;;;;;;;0.20;0.20;;;;;;;8.58;64.80;93753.44;5098337;28;20229;-75
2023/04/02 01:40:04;;;;;;;0.30;0.30;;;;;;;8.54;64.66;93743.31;5107822;28;20224;-77
2023/04/02 01:42:36;;;;;;;0.30;0.30;;;;;;;8.58;64.34;93753.44;5090920;28;20594;-77
2023/04/02 01:45:08;;;;;;;0.20;0.20;;;;;;;8.60;64.30;93749.31;5098670;28;20247;-76
2023/04/02 01:47:35;;;;;;;0.20;0.20;;;;;;;8.55;64.54;93744.91;5089364;28;20734;-77
2023/04/02 01:50:11;;;;;;;0.22;0.22;;;;;;;8.75;63.96;93737.81;5093321;28;20198;-76
2023/04/02 01:52:42;;;;;;;3.95;0.70;;;;;;;8.63;64.50;93734.31;5100881;28;20201;-75
2023/04/02 01:55:11;;;;;;;0.70;0.43;;;;;;;8.53;64.63;93730.94;5101258;28;20202;-76
2023/04/02 01:57:40;;;;;;;6.95;0.85;;;;;;;7.99;69.69;93740.25;5094630;28;20230;-77
2023/04/02 02:00:14;;;;;;;1.52;0.85;;;;;;;7.31;73.19;93737.84;5094263;28;20202;-74
2023/04/02 02:02:43;;;;;;;1.23;0.95;;;;;;;6.88;74.89;93743.50;5101055;28;20571;-74
2023/04/02 02:05:13;;;;;;;1.60;0.85;;;;;;;6.62;76.32;93740.19;5105333;28;20210;-76
2023/04/02 02:07:40;;;;;;;0.77;0.60;;;;;;;6.48;77.13;93747.69;5100628;28;20251;-76
2023/04/02 02:10:14;;;;;;;0.60;0.60;;;;;;;6.40;77.72;93742.03;5097706;28;20680;-75
2023/04/02 02:12:42;;;;;;;2.67;1.40;;;;;;;6.37;78.43;93756.09;5100156;28;20202;-75
2023/04/02 02:15:16;;;;;;;1.90;1.30;;;;;;;6.58;76.95;93744.63;5104095;28;20245;-76
2023/04/02 02:17:43;;;;;;;1.52;1.35;;;;;;;6.51;77.03;93750.53;5103018;28;20233;-75
2023/04/02 02:20:12;;;;;;;2.08;1.35;;;;;;;6.59;76.47;93746.19;5097039;28;20241;-75
2023/04/02 02:22:43;;;;;;;2.30;1.20;;;;;;;6.61;76.33;93743.97;5097729;28;20202;-75
2023/04/02 02:25:14;;;;;;;1.20;0.65;;;;;;;6.60;76.55;93747.78;5085854;28;20197;-74
2023/04/02 02:27:53;;;;;;;0.68;0.60;;;;;;;6.65;76.62;93752.97;5108094;27;20944;-76
2023/04/02 02:30:27;;;;;;;0.90;0.60;;;;;;;6.64;76.80;93748.72;5100748;28;20254;-75
2023/04/02 02:33:00;;;;;;;1.17;1.02;;;;;;;6.65;76.80;93750.28;5097223;28;20201;-75
2023/04/02 02:35:31;;;;;;;1.63;1.15;;;;;;;6.73;76.64;93757.53;5098942;28;20267;-75
2023/04/02 02:38:21;;;;;;;1.10;0.70;;;;;;;6.80;76.77;93740.88;5076586;28;20653;-75
2023/04/02 02:40:50;;;;;;;0.50;0.50;;;;;;;6.70;76.68;93747.41;5104036;28;20197;-75
2023/04/02 02:43:17;;;;;;;0.55;0.55;;;;;;;6.72;76.51;93740.59;5100403;28;20202;-75
2023/04/02 02:45:48;;;;;;;4.35;0.60;;;;;;;6.73;75.67;93746.75;5097074;28;20295;-75
2023/04/02 02:48:19;;;;;;;0.90;0.60;;;;;;;6.84;75.59;93731.81;5100055;28;20202;-76
2023/04/02 02:50:46;;;;;;;1.83;0.90;;;;;;;6.72;76.21;93723.66;5103764;28;20305;-75
2023/04/02 02:53:19;;;;;;;1.45;0.60;;;;;;;6.78;75.57;93739.31;5101234;28;20267;-76
2023/04/02 02:55:47;;;;;;;1.05;0.95;;;;;;;6.83;75.55;93746.41;5096375;28;20740;-76
2023/04/02 02:58:18;;;;;;;1.25;0.90;;;;;;;6.58;77.96;93752.69;5097545;28;20238;-76
2023/04/02 03:00:47;;;;;;;3.65;0.80;;;;;;;6.42;79.52;93753.22;5103620;28;20202;-75
2023/04/02 03:03:18;;;;;;;2.42;1.40;;;;;;;6.31;80.39;93752.00;5103592;28;20270;-76
2023/04/02 03:05:50;;;;;;;1.48;1.30;;;;;;;6.15;81.99;93742.88;5097276;28;20668;-77
2023/04/02 03:08:25;;;;;;;0.73;0.73;;;;;;;6.19;82.60;93738.44;5110690;28;20201;-75
2023/04/02 03:10:58;;;;;;;2.88;1.30;;;;;;;6.10;83.26;93743.06;5100799;28;20198;-75
2023/04/02 03:13:31;;;;;;;1.88;1.23;;;;;;;5.94;83.59;93747.38;5103606;28;20198;-75
2023/04/02 03:16:06;;;;;;;1.92;1.10;;;;;;;5.95;83.90;93765.09;5100755;28;20537;-75
2023/04/02 03:18:42;;;;;;;2.50;1.10;;;;;;;5.82;84.84;93760.66;5096334;28;20634;-75
2023/04/02 03:21:19;;;;;;;1.30;0.80;;;;;;;5.70;85.91;93770.16;5096188;28;20206;-75
2023/04/02 03:23:51;;;;;;;2.40;1.73;;;;;;;5.49;87.31;93773.78;5100253;27;20194;-76
2023/04/02 03:26:21;;;;;;;3.25;2.22;;;;;;;5.45;87.78;93768.28;5103693;28;20251;-75
2023/04/02 03:28:55;;;;;;;1.08;0.90;;;;;;;5.30;88.78;93771.44;5099458;28;20198;-75
2023/04/02 03:31:28;;;;;;;3.13;1.30;;;;;;;5.27;88.94;93769.38;5103034;28;20705;-74
2023/04/02 03:33:58;;;;;;;2.65;2.03;;;;;;;5.18;89.59;93773.97;5102341;28;20231;-75
2023/04/02 03:36:29;;;;;;;1.33;1.23;;;;;;;5.24;89.59;93767.31;5096072;28;20247;-75
2023/04/02 03:39:04;;;;;;;2.50;1.65;;;;;;;5.10;89.92;93762.09;5095574;28;20634;-75
2023/04/02 03:41:38;;;;;;;2.95;1.75;;;;;;;5.11;90.49;93782.47;5097858;28;20269;-75
2023/04/02 03:44:15;;;;;;;2.38;1.80;;;;;;;5.09;90.68;93781.19;5092556;28;20760;-76
2023/04/02 03:46:47;;;;;;;2.95;1.83;;;;;;;5.12;90.96;93780.56;5101098;28;20198;-77
2023/04/02 03:49:23;;;;;;;1.55;1.33;;;;;;;5.12;90.53;93775.19;5095654;28;20674;-75
2023/04/02 03:51:55;;;;;;;4.03;1.58;;;;;;;5.05;90.56;93775.69;5096171;28;20206;-75
2023/04/02 03:54:23;;;;;;;2.05;1.75;;;;;;;5.04;91.24;93773.31;5084583;28;20285;-76
2023/04/02 03:56:52;;;;;;;3.28;1.95;;;;;;;5.18;90.19;93769.38;5096569;28;20210;-75
2023/04/02 03:59:25;;;;;;;2.88;1.88;;;;;;;5.26;89.86;93765.91;5102295;28;20198;-76
2023/04/02 04:01:58;;;;;;;3.40;1.75;;;;;;;5.27;89.70;93767.47;5102927;28;20209;-76
2023/04/02 04:04:28;;;;;;;5.55;2.83;;;;;;;5.12;89.80;93765.25;5099751;28;20202;-75
2023/04/02 04:06:57;;;;;;;4.72;2.97;;;;;;;5.11;90.35;93769.03;5095414;28;20957;-74
2023/04/02 04:09:29;;;;;;;4.05;3.13;;;;;;;4.93;90.84;93768.22;5098040;28;20571;-74
2023/04/02 04:12:07;;;;;;;5.78;3.30;;;;;;;4.95;91.13;93792.06;5102227;28;20255;-74
2023/04/02 04:14:37;;;;;;;5.75;3.25;;;;;;;4.88;91.56;93792.53;5102433;28;20197;-74
2023/04/02 04:17:14;;;;;;;1.65;1.23;;;;;;;4.82;91.93;93783.03;5081180;28;20202;-76
2023/04/02 04:19:45;;;;;;;4.05;2.28;;;;;;;4.84;92.00;93786.19;5097176;28;20221;-74
2023/04/02 04:22:16;;;;;;;1.40;0.98;;;;;;;5.51;84.44;93788.50;5098329;28;20317;-75
2023/04/02 04:24:44;;;;;;;2.25;1.63;;;;;;;5.17;88.99;93791.97;5090308;28;20221;-74
2023/04/02 04:27:19;;;;;;;4.18;2.08;;;;;;;5.08;90.51;93801.06;5099568;28;20233;-74
2023/04/02 04:29:52;;;;;;;4.00;2.50;;;;;;;4.93;91.67;93808.47;5084555;28;20259;-76
2023/04/02 04:32:30;;;;;;;6.03;2.40;;;;;;;4.87;92.37;93807.03;5094159;28;20284;-74
2023/04/02 04:35:02;;;;;;;4.10;1.73;;;;;;;4.81;92.93;93802.91;5083565;28;20735;-76
2023/04/02 04:37:34;;;;;;;5.32;3.88;;;;;;;4.84;92.68;93813.03;5095214;28;20585;-75
2023/04/02 04:40:08;;;;;;;5.40;4.07;;;;;;;4.93;92.72;93821.09;5098873;28;20198;-75
2023/04/02 04:42:39;;;;;;;6.20;3.85;;;;;;;5.22;92.85;93818.63;5070588;28;20202;-75
2023/04/02 04:45:15;;;;;;;6.18;3.90;;;;;;;5.50;90.37;93821.81;5079615;28;20214;-75
2023/04/02 04:47:51;;;;;;;3.58;2.22;;;;;;;5.87;89.12;93811.56;5103898;28;20248;-79
2023/04/02 04:50:28;;;;;;;3.90;1.90;;;;;;;6.68;85.80;93808.84;5104925;28;20822;-77
2023/04/02 04:52:55;;;;;;;3.38;1.70;;;;;;;7.43;83.75;93801.78;5099149;28;20250;-76
2023/04/02 04:55:27;;;;;;;3.50;2.05;;;;;;;8.44;77.95;93808.53;5098553;28;20210;-75
2023/04/02 04:58:00;;;;;;;3.42;1.88;;;;;;;8.94;74.34;93810.16;5100911;28;20230;-76
2023/04/02 05:00:35;;;;;;;3.22;1.67;;;;;;;9.10;73.01;93808.38;5103124;28;20206;-76
2023/04/02 05:03:15;;;;;;;3.67;2.10;;;;;;;9.75;71.92;93805.69;5100114;28;20201;-77
2023/04/02 05:05:44;;;;;;;5.85;1.98;;;;;;;10.62;67.24;93793.06;5081872;28;20764;-77
2023/04/02 05:08:15;;;;;;;2.50;1.58;;;;;;;11.14;65.92;93794.72;5095470;28;20205;-76
2023/04/02 05:10:46;;;;;;;4.38;2.03;;;;;;;11.74;64.49;93789.88;5085932;28;20244;-76
2023/04/02 05:13:20;;;;;;;5.18;1.73;;;;;;;11.30;63.33;93792.78;5077181;28;20268;-76
2023/04/02 05:15:54;;;;;;;2.10;1.67;;;;;;;11.32;63.99;93795.94;5086175;28;20222;-77
2023/04/02 05:18:28;;;;;;;5.32;1.65;;;;;;;13.81;59.32;93789.69;5080883;28;20309;-74
2023/04/02 05:21:00;;;;;;;2.75;1.95;;;;;;;13.48;56.33;93787.69;5078339;28;20253;-75
2023/04/02 05:23:29;;;;;;;2.80;1.58;;;;;;;13.73;56.46;93794.25;5088582;28;20615;-75
2023/04/02 05:26:05;;;;;;;6.97;1.70;;;;;;;15.21;52.75;93788.16;5072755;28;20661;-75
2023/04/02 05:28:37;;;;;;;6.25;1.92;;;;;;;14.73;52.62;93781.88;5096070;28;20851;-75
2023/04/02 05:31:12;;;;;;;3.33;1.70;;;;;;;15.67;50.81;93794.00;5087459;28;20744;-75
2023/04/02 05:33:44;;;;;;;3.22;1.90;;;;;;;15.97;49.33;93786.38;5084088;28;20212;-74
2023/04/02 05:36:18;;;;;;;2.75;1.77;;;;;;;15.45;49.23;93793.00;5082123;28;20191;-77
2023/04/02 05:38:46;;;;;;;4.13;1.75;;;;;;;14.42;51.57;93802.16;5084646;28;20267;-73
2023/04/02 05:41:22;;;;;;;3.78;1.65;;;;;;;13.85;54.08;93812.31;5090641;28;20201;-72
2023/04/02 05:43:54;;;;;;;2.85;1.90;;;;;;;14.42;52.66;93796.72;5088148;28;20258;-74
2023/04/02 05:46:27;;;;;;;2.50;1.55;;;;;;;15.14;51.58;93790.84;5089612;28;20272;-73
2023/04/02 05:48:58;;;;;;;2.08;1.30;;;;;;;16.33;48.31;93790.06;5093043;28;20190;-74
2023/04/02 05:51:30;;;;;;;5.07;1.90;;;;;;;15.68;49.19;93800.25;5090886;28;20190;-73
2023/04/02 05:54:01;;;;;;;3.50;1.63;;;;;;;16.58;47.33;93797.56;5087732;28;20274;-73
2023/04/02 05:56:33;;;;;;;2.65;2.05;;;;;;;16.99;46.74;93796.16;5089756;28;20191;-75
2023/04/02 05:59:07;;;;;;;2.90;1.50;;;;;;;17.53;44.61;93802.44;5087976;28;20230;-75
2023/04/02 06:01:40;;;;;;;2.58;2.00;;;;;;;16.60;47.28;93806.97;5088752;28;20210;-77
2023/04/02 06:04:21;;;;;;;3.05;2.08;;;;;;;16.64;46.51;93809.75;5089386;28;20195;-74
2023/04/02 06:06:54;;;;;;;4.20;2.40;;;;;;;16.49;47.26;93806.16;5088625;28;20559;-74
2023/04/02 06:09:29;;;;;;;4.63;2.60;;;;;;;15.78;48.18;93815.91;5087717;28;20264;-75
2023/04/02 06:12:03;;;;;;;4.78;2.38;;;;;;;16.47;46.82;93813.16;5091611;28;20201;-74
2023/04/02 06:14:30;;;;;;;5.15;2.28;;;;;;;16.27;47.21;93818.13;5089393;28;20674;-75
2023/04/02 06:17:00;;;;;;;5.07;2.15;;;;;;;15.13;50.28;93814.59;5088795;28;20279;-73
2023/04/02 06:19:32;;;;;;;3.22;1.90;;;;;;;16.54;47.82;93807.72;5089290;28;20218;-77
2023/04/02 06:22:10;;;;;;;3.72;2.22;;;;;;;15.43;48.94;93810.97;5090386;28;20200;-75
2023/04/02 06:24:40;;;;;;;2.35;1.65;;;;;;;15.47;49.22;93815.25;5089258;28;20620;-76
2023/04/02 06:27:11;;;;;;;4.70;2.97;;;;;;;15.16;49.54;93822.03;5092548;28;20194;-75
2023/04/02 06:29:44;;;;;;;2.80;1.88;;;;;;;14.85;50.44;93826.00;5083266;28;20614;-74
2023/04/02 06:32:12;;;;;;;2.47;1.70;;;;;;;15.37;49.64;93818.69;5091420;28;20209;-74
2023/04/02 06:34:42;;;;;;;4.28;1.90;;;;;;;15.87;47.78;93816.34;5084223;28;20194;-73
2023/04/02 06:37:18;;;;;;;3.20;1.90;;;;;;;16.04;46.60;93806.69;5085455;28;20243;-72
2023/04/02 06:39:44;;;;;;;4.93;2.00;;;;;;;15.86;47.73;93812.06;5088987;28;20221;-74
2023/04/02 06:42:14;;;;;;;4.97;2.70;;;;;;;17.72;44.41;93799.34;5089446;28;20190;-73
2023/04/02 06:44:41;;;;;;;7.32;3.20;;;;;;;18.72;41.82;93799.09;5086331;28;20194;-72
2023/04/02 06:47:16;;;;;;;4.95;3.10;;;;;;;18.64;41.89;93811.28;5089495;28;20202;-69
2023/04/02 06:49:50;;;;;;;4.78;2.90;;;;;;;17.34;44.07;93816.53;5098848;28;20288;-72
2023/04/02 06:52:23;;;;;;;3.67;2.72;;;;;;;17.43;44.28;93811.44;5098743;28;20194;-73
2023/04/02 06:54:50;;;;;;;4.13;3.17;;;;;;;17.47;44.09;93814.97;5098618;28;20247;-72
2023/04/02 06:57:16;;;;;;;7.03;3.15;;;;;;;17.16;44.35;93821.19;5103170;28;20202;-72
2023/04/02 06:59:43;;;;;;;5.07;3.25;;;;;;;16.37;45.71;93827.56;5101262;28;20229;-71
2023/04/02 07:02:24;;;;;;;6.00;2.90;;;;;;;17.74;43.74;93824.41;5095719;28;20205;-71
2023/04/02 07:04:54;;;;;;;4.80;3.13;;;;;;;17.73;43.18;93825.56;5095798;28;20198;-76
2023/04/02 07:07:21;;;;;;;5.32;3.30;;;;;;;18.35;42.22;93819.56;5091989;28;20278;-75
2023/04/02 07:09:48;;;;;;;5.53;2.72;;;;;;;17.32;43.87;93829.81;5082822;28;20252;-74
2023/04/02 07:12:15;;;;;;;6.03;2.70;;;;;;;17.51;44.82;93823.97;5090410;27;20650;-74
2023/04/02 07:14:41;;;;;;;4.07;3.08;;;;;;;15.99;46.55;93833.22;5097778;28;20198;-77
2023/04/02 07:17:15;;;;;;;4.63;2.80;;;;;;;15.08;48.80;93841.44;5081517;28;20231;-73
2023/04/02 07:19:44;;;;;;;4.25;3.28;;;;;;;15.01;49.47;93844.09;5099206;28;20282;-74
2023/04/02 07:22:12;;;;;;;6.13;3.03;;;;;;;15.33;49.37;93841.66;5099293;28;20255;-74
2023/04/02 07:24:39;;;;;;;5.70;3.03;;;;;;;15.48;48.74;93841.41;5091109;28;20575;-75
2023/04/02 07:27:06;;;;;;;6.35;3.30;;;;;;;15.84;47.92;93852.63;5099285;28;20206;-74
2023/04/02 07:29:32;;;;;;;3.55;2.60;;;;;;;15.25;48.34;93847.06;5104051;28;20198;-76
2023/04/02 07:31:59;;;;;;;4.05;2.35;;;;;;;14.22;51.38;93859.50;5101462;28;20296;-77
2023/04/02 07:34:26;;;;;;;4.63;2.13;;;;;;;14.59;49.96;93845.19;5095974;28;20198;-76
2023/04/02 07:36:53;;;;;;;3.25;2.00;;;;;;;15.10;49.55;93852.75;5099312;28;20198;-76
2023/04/02 07:39:21;;;;;;;4.50;1.90;;;;;;;14.40;49.69;93853.53;5102933;28;20766;-76
2023/04/02 07:41:52;;;;;;;2.90;1.90;;;;;;;14.89;49.56;93854.13;5100259;28;20258;-76
2023/04/02 07:44:19;;;;;;;2.60;1.73;;;;;;;14.81;50.33;93852.44;5095711;28;20246;-79
2023/04/02 07:46:46;;;;;;;3.88;1.80;;;;;;;14.72;48.91;93859.38;5109449;28;20288;-78
2023/04/02 07:49:13;;;;;;;3.92;1.17;;;;;;;14.83;49.95;93855.59;5095916;28;20250;-74
2023/04/02 07:51:39;;;;;;;2.10;0.80;;;;;;;15.45;46.94;93855.78;5087729;28;20199;-74
2023/04/02 07:54:09;;;;;;;1.25;0.60;;;;;;;15.86;45.04;93850.28;5087619;28;20208;-74
2023/04/02 07:56:37;;;;;;;0.80;0.60;;;;;;;15.90;45.11;93854.63;5085209;28;20243;-74
2023/04/02 07:59:04;;;;;;;0.75;0.50;;;;;;;16.33;43.25;93850.19;5101576;28;20230;-73
2023/04/02 08:01:34;;;;;;;1.60;0.70;;;;;;;16.54;42.53;93846.75;5090469;28;20705;-73
2023/04/02 08:04:03;;;;;;;1.55;0.60;;;;;;;15.85;44.01;93848.75;5081382;28;20354;-74
2023/04/02 08:06:30;;;;;;;0.80;0.60;;;;;;;16.51;44.11;93852.25;5088244;28;20199;-73
2023/04/02 08:08:57;;;;;;;3.85;0.80;;;;;;;17.45;40.90;93844.69;5100870;28;20271;-75
2023/04/02 08:11:25;;;;;;;1.27;0.50;;;;;;;16.76;42.49;93847.69;5096926;28;20884;-77
2023/04/02 08:13:53;;;;;;;0.50;0.40;;;;;;;16.39;43.29;93852.59;5100881;28;20198;-78
2023/04/02 08:16:20;;;;;;;0.40;0.40;;;;;;;14.88;46.26;93852.53;5102950;28;20707;-75
2023/04/02 08:18:47;;;;;;;0.73;0.52;;;;;;;14.23;47.38;93863.78;5093623;28;20845;-74
2023/04/02 08:21:14;;;;;;;1.15;0.55;;;;;;;14.51;47.97;93870.78;5101879;28;20198;-76
2023/04/02 08:23:41;;;;;;;3.80;0.70;;;;;;;14.42;46.83;93875.75;5074570;28;20196;-77
2023/04/02 08:26:08;;;;;;;1.02;0.60;;;;;;;13.84;47.65;93867.91;5094889;28;20905;-75
2023/04/02 08:28:35;;;;;;;2.25;0.82;;;;;;;14.00;48.04;93863.09;5092235;28;20198;-76
2023/04/02 08:31:03;;;;;;;0.85;0.57;;;;;;;14.16;48.39;93871.88;5097423;28;20206;-82
2023/04/02 08:33:30;;;;;;;1.13;0.57;;;;;;;13.93;48.23;93873.09;5091629;28;20237;-82
2023/04/02 08:35:57;;;;;;;1.48;0.82;;;;;;;14.08;49.47;93881.09;5087904;28;20198;-75
2023/04/02 08:38:25;;;;;;;0.50;0.50;;;;;;;14.23;48.18;93880.13;5090470;28;20195;-77
2023/04/02 08:40:54;;;;;;;0.60;0.55;;;;;;;14.13;47.83;93875.31;5085794;28;20258;-76
2023/04/02 08:43:37;;;;;;;1.17;0.73;;;;;;;14.49;47.58;93868.44;5077042;28;20272;-77
2023/04/02 08:46:14;;;;;;;2.42;0.70;;;;;;;14.22;47.58;93867.66;5098995;28;20212;-75
2023/04/02 08:48:47;;;;;;;0.80;0.50;;;;;;;14.13;47.58;93880.78;5087085;28;20233;-78
2023/04/02 08:51:22;;;;;;;1.83;0.70;;;;;;;14.69;47.08;93879.97;5087686;28;20248;-76
2023/04/02 08:53:51;;;;;;;1.45;0.95;;;;;;;15.16;47.12;93873.09;5092216;28;20204;-75
2023/04/02 08:56:24;;;;;;;2.10;1.00;;;;;;;15.34;45.72;93865.84;5097366;28;20206;-75
2023/04/02 08:58:54;;;;;;;3.13;0.60;;;;;;;15.27;46.03;93857.59;5087235;28;20225;-77
2023/04/02 09:01:35;;;;;;;0.95;0.68;;;;;;;15.67;44.70;93861.47;5087641;28;20290;-77
2023/04/02 09:04:06;;;;;;;3.88;1.33;;;;;;;15.81;44.84;93858.84;5084256;28;20208;-76
2023/04/02 09:06:34;;;;;;;0.82;0.70;;;;;;;15.91;42.17;93858.91;5099074;28;20205;-77
2023/04/02 09:09:00;;;;;;;1.65;0.75;;;;;;;15.34;44.23;93863.09;5090292;28;20209;-76
2023/04/02 09:11:35;;;;;;;1.08;0.60;;;;;;;15.36;43.99;93860.78;5090786;28;20338;-82
2023/04/02 09:14:06;;;;;;;1.00;0.68;;;;;;;14.99;43.98;93862.78;5091272;28;20198;-78
2023/04/02 09:16:43;;;;;;;0.80;0.60;;;;;;;14.97;44.61;93859.63;5099152;28;20226;-78
2023/04/02 09:19:20;;;;;;;1.30;0.63;;;;;;;15.40;42.94;93860.84;5082980;28;20225;-79
2023/04/02 09:21:57;;;;;;;2.00;0.98;;;;;;;16.19;43.29;93863.78;5089515;28;20647;-77
2023/04/02 09:24:23;;;;;;;1.05;0.70;;;;;;;16.50;42.98;93854.19;5086537;28;20734;-76
2023/04/02 09:26:50;;;;;;;1.38;0.52;;;;;;;15.85;42.00;93856.94;5086587;28;20198;-77
2023/04/02 09:29:41;;;;;;;0.80;0.80;;;;;;;16.53;42.88;93849.91;5087653;28;20217;-77
2023/04/02 09:32:44;;;;;;;3.25;0.70;;;;;;;17.15;41.04;93849.75;5103179;28;20197;-78
2023/04/02 09:35:14;;;;;;;1.15;0.80;;;;;;;17.38;40.67;93844.69;5067824;28;20622;-76
2023/04/02 09:37:42;;;;;;;1.00;0.60;;;;;;;16.26;41.11;93852.13;5085775;28;20246;-78
2023/04/02 09:40:33;;;;;;;1.75;0.60;;;;;;;15.80;42.77;93851.81;5092353;28;20241;-76
2023/04/02 09:43:08;;;;;;;3.05;0.70;;;;;;;15.58;42.86;93851.63;5071883;28;20206;-75
2023/04/02 09:45:35;;;;;;;1.05;0.75;;;;;;;15.62;42.21;93852.47;5089412;28;20194;-80
2023/04/02 09:48:21;;;;;;;0.60;0.60;;;;;;;15.48;42.93;93840.63;5092424;28;20194;-77
2023/04/02 09:50:48;;;;;;;0.52;0.50;;;;;;;15.11;42.28;93846.13;5092764;28;20205;-79
2023/04/02 09:53:28;;;;;;;0.55;0.55;;;;;;;15.18;43.01;93844.25;5094106;28;20190;-78
2023/04/02 09:56:09;;;;;;;0.93;0.60;;;;;;;15.83;42.51;93842.88;5073971;28;20229;-78
2023/04/02 09:58:36;;;;;;;0.65;0.50;;;;;;;16.24;42.80;93843.53;5090249;28;20206;-78
2023/04/02 10:01:03;;;;;;;0.50;0.50;;;;;;;16.40;41.33;93837.75;5097542;28;20234;-76
2023/04/02 10:03:33;;;;;;;0.93;0.60;;;;;;;16.18;41.77;93840.34;5087737;28;20198;-81
2023/04/02 10:06:08;;;;;;;1.05;0.40;;;;;;;16.00;40.10;93847.66;5066416;28;20214;-78
2023/04/02 10:08:36;;;;;;;0.50;0.50;;;;;;;16.27;40.83;93843.50;5075203;28;20921;-77
2023/04/02 10:11:07;;;;;;;0.55;0.40;;;;;;;16.58;39.58;93835.84;5095892;28;20271;-78
2023/04/02 10:13:43;;;;;;;2.33;1.13;;;;;;;17.05;40.16;93832.91;5100624;28;20256;-77
2023/04/02 10:16:14;;;;;;;2.22;0.90;;;;;;;17.33;38.17;93820.44;5099528;28;20301;-77
2023/04/02 10:18:46;;;;;;;1.35;1.05;;;;;;;17.61;38.91;93812.25;5067070;28;20249;-80
2023/04/02 10:21:17;;;;;;;0.52;0.52;;;;;;;17.63;38.34;93822.81;5095096;28;20236;-80
2023/04/02 10:23:44;;;;;;;1.52;0.82;;;;;;;17.93;37.60;93819.66;5088138;28;20202;-78
2023/04/02 10:26:29;;;;;;;1.13;0.60;;;;;;;18.34;36.36;93807.03;5104447;28;20209;-79
2023/04/02 10:29:15;;;;;;;0.45;0.45;;;;;;;18.34;37.72;93809.00;5102072;28;20209;-77
2023/04/02 10:31:52;;;;;;;0.60;0.60;;;;;;;18.28;37.88;93822.34;5085359;28;20259;-77
2023/04/02 10:34:24;;;;;;;0.60;0.57;;;;;;;18.68;36.90;93814.78;5096844;28;20251;-76
2023/04/02 10:36:54;;;;;;;0.82;0.55;;;;;;;18.59;38.65;93820.69;5090533;28;20280;-75
2023/04/02 10:39:26;;;;;;;0.50;0.40;;;;;;;17.22;38.93;93819.66;5101709;28;20227;-78
2023/04/02 10:41:58;;;;;;;0.57;0.52;;;;;;;17.65;39.85;93821.25;5101426;28;20205;-80
2023/04/02 10:44:46;;;;;;;0.77;0.70;;;;;;;16.53;41.83;93834.28;5106987;28;20208;-76
2023/04/02 10:47:26;;;;;;;0.50;0.50;;;;;;;16.42;42.92;93827.19;5103472;28;20210;-78
2023/04/02 10:50:08;;;;;;;0.88;0.70;;;;;;;16.55;44.06;93809.28;5100174;28;20201;-77
2023/04/02 10:52:39;;;;;;;0.50;0.50;;;;;;;16.26;43.41;93820.09;5096671;28;20202;-75
2023/04/02 10:55:16;;;;;;;1.00;0.50;;;;;;;15.75;44.26;93812.00;5097115;28;20216;-77
2023/04/02 10:57:44;;;;;;;1.05;0.80;;;;;;;15.30;44.83;93818.66;5084943;28;20300;-77
2023/04/02 11:00:21;;;;;;;0.90;0.68;;;;;;;15.38;44.78;93803.91;5096431;27;20272;-74
2023/04/02 11:02:53;;;;;;;1.52;1.00;;;;;;;15.19;44.74;93812.28;5100269;28;20206;-81
2023/04/02 11:05:29;;;;;;;0.88;0.50;;;;;;;15.64;44.78;93817.38;5103218;28;20255;-82
2023/04/02 11:08:00;;;;;;;0.77;0.60;;;;;;;15.24;45.74;93820.16;5100984;28;20292;-79
2023/04/02 11:10:32;;;;;;;1.27;0.60;;;;;;;15.13;44.88;93814.59;5096154;28;20281;-77
2023/04/02 11:13:03;;;;;;;0.40;0.35;;;;;;;15.08;45.77;93809.47;5097101;28;20206;-79
2023/04/02 11:15:30;;;;;;;1.15;0.70;;;;;;;15.15;45.88;93811.50;5083462;28;20253;-77
2023/04/02 11:17:58;;;;;;;0.98;0.57;;;;;;;15.10;46.42;93812.63;5095897;28;20230;-77
2023/04/02 11:21:01;;;;;;;0.50;0.50;;;;;;;15.24;46.35;93820.94;5102445;28;20283;-79
2023/04/02 11:23:31;;;;;;;0.68;0.47;;;;;;;15.70;45.68;93819.78;5101671;28;20208;-78
2023/04/02 11:26:46;;;;;;;0.77;0.70;;;;;;;16.05;44.35;93808.28;5089180;28;20202;-76
2023/04/02 11:29:22;;;;;;;0.90;0.80;;;;;;;16.76;43.65;93803.91;5103399;28;20202;-77
2023/04/02 11:31:51;;;;;;;0.63;0.60;;;;;;;17.31;41.56;93801.66;5097936;28;20197;-75
2023/04/02 11:34:52;;;;;;;0.80;0.60;;;;;;;16.55;43.93;93798.34;5095558;28;20854;-77
2023/04/02 11:37:34;;;;;;;1.63;0.80;;;;;;;16.04;43.53;93802.03;5095538;28;20197;-75
2023/04/02 11:40:04;;;;;;;0.45;0.45;;;;;;;15.69;44.52;93797.13;5099828;28;20795;-75
2023/04/02 11:42:33;;;;;;;2.35;0.65;;;;;;;15.75;44.72;93789.34;5102435;28;20311;-77
2023/04/02 11:45:22;;;;;;;1.95;0.75;;;;;;;16.27;43.83;93791.59;5099058;28;20770;-76
2023/04/02 11:48:22;;;;;;;0.93;0.50;;;;;;;15.80;42.94;93791.75;5082423;28;20559;-76
2023/04/02 11:50:48;;;;;;;1.02;0.60;;;;;;;15.66;43.39;93797.09;5085542;28;20199;-76
2023/04/02 11:53:22;;;;;;;1.55;0.65;;;;;;;15.83;44.03;93791.00;5092719;28;20194;-73
2023/04/02 11:56:08;;;;;;;0.65;0.50;;;;;;;15.67;43.48;93798.69;5094555;28;20210;-76
2023/04/02 11:58:54;;;;;;;0.70;0.50;;;;;;;15.87;43.58;93776.16;5106140;28;20197;-79
2023/04/02 12:01:42;;;;;;;2.28;0.60;;;;;;;16.06;44.03;93788.75;5100431;28;20357;-77
2023/04/02 12:04:34;;;;;;;0.63;0.55;;;;;;;16.19;44.06;93787.28;5076323;28;20198;-76